sensor_id;sensor_type;location;lat;lon;timestamp;P1;durP1;ratioP1;P2;durP2;ratioP2
41221;SDS011;26952;42.884;23.918;2023-02-28T00:00:31;38.60;;;28.25;;
41221;SDS011;26952;42.884;23.918;2023-02-28T00:02:58;37.88;;;26.27;;
41221;SDS011;26952;42.884;23.918;2023-02-28T00:05:24;39.03;;;28.60;;
41221;SDS011;26952;42.884;23.918;2023-02-28T00:07:51;44.65;;;30.58;;
41221;SDS011;26952;42.884;23.918;2023-02-28T00:10:17;37.75;;;28.10;;
41221;SDS011;26952;42.884;23.918;2023-02-28T00:12:46;34.20;;;26.05;;
41221;SDS011;26952;42.884;23.918;2023-02-28T00:15:12;34.95;;;25.85;;
41221;SDS011;26952;42.884;23.918;2023-02-28T00:17:37;30.40;;;23.90;;
41221;SDS011;26952;42.884;23.918;2023-02-28T00:20:03;33.25;;;24.83;;
41221;SDS011;26952;42.884;23.918;2023-02-28T00:22:33;30.60;;;24.42;;
41221;SDS011;26952;42.884;23.918;2023-02-28T00:24:59;39.33;;;27.08;;
41221;SDS011;26952;42.884;23.918;2023-02-28T00:27:24;37.78;;;26.67;;
41221;SDS011;26952;42.884;23.918;2023-02-28T00:29:50;37.60;;;25.90;;
41221;SDS011;26952;42.884;23.918;2023-02-28T00:32:15;38.58;;;27.55;;
41221;SDS011;26952;42.884;23.918;2023-02-28T00:34:41;36.83;;;26.58;;
41221;SDS011;26952;42.884;23.918;2023-02-28T00:37:07;44.50;;;28.13;;
41221;SDS011;26952;42.884;23.918;2023-02-28T00:39:34;39.38;;;26.02;;
41221;SDS011;26952;42.884;23.918;2023-02-28T00:42:01;36.25;;;26.38;;
41221;SDS011;26952;42.884;23.918;2023-02-28T00:44:27;39.78;;;27.80;;
41221;SDS011;26952;42.884;23.918;2023-02-28T00:46:53;37.60;;;27.00;;
41221;SDS011;26952;42.884;23.918;2023-02-28T00:49:19;35.60;;;26.05;;
41221;SDS011;26952;42.884;23.918;2023-02-28T00:51:45;37.33;;;27.45;;
41221;SDS011;26952;42.884;23.918;2023-02-28T00:54:11;33.72;;;26.98;;
41221;SDS011;26952;42.884;23.918;2023-02-28T00:56:36;33.63;;;27.00;;
41221;SDS011;26952;42.884;23.918;2023-02-28T00:59:02;33.17;;;25.42;;
41221;SDS011;26952;42.884;23.918;2023-02-28T01:01:27;31.27;;;24.77;;
41221;SDS011;26952;42.884;23.918;2023-02-28T01:03:53;34.80;;;28.38;;
41221;SDS011;26952;42.884;23.918;2023-02-28T01:06:18;35.97;;;28.10;;
41221;SDS011;26952;42.884;23.918;2023-02-28T01:08:43;33.20;;;25.60;;
41221;SDS011;26952;42.884;23.918;2023-02-28T01:11:09;34.67;;;28.15;;
41221;SDS011;26952;42.884;23.918;2023-02-28T01:13:36;37.38;;;28.13;;
41221;SDS011;26952;42.884;23.918;2023-02-28T01:16:02;38.95;;;29.77;;
41221;SDS011;26952;42.884;23.918;2023-02-28T01:18:27;41.70;;;30.98;;
41221;SDS011;26952;42.884;23.918;2023-02-28T01:20:53;35.50;;;28.48;;
41221;SDS011;26952;42.884;23.918;2023-02-28T01:23:19;40.47;;;29.80;;
41221;SDS011;26952;42.884;23.918;2023-02-28T01:25:48;42.00;;;29.83;;
41221;SDS011;26952;42.884;23.918;2023-02-28T01:28:13;42.05;;;29.55;;
41221;SDS011;26952;42.884;23.918;2023-02-28T01:30:39;39.47;;;30.60;;
41221;SDS011;26952;42.884;23.918;2023-02-28T01:33:04;40.83;;;28.85;;
41221;SDS011;26952;42.884;23.918;2023-02-28T01:35:32;35.28;;;26.20;;
41221;SDS011;26952;42.884;23.918;2023-02-28T01:38:01;38.20;;;27.80;;
41221;SDS011;26952;42.884;23.918;2023-02-28T01:40:27;42.13;;;29.73;;
41221;SDS011;26952;42.884;23.918;2023-02-28T01:42:52;34.53;;;24.85;;
41221;SDS011;26952;42.884;23.918;2023-02-28T01:45:30;31.65;;;24.25;;
41221;SDS011;26952;42.884;23.918;2023-02-28T01:48:03;30.17;;;22.15;;
41221;SDS011;26952;42.884;23.918;2023-02-28T01:50:34;26.80;;;20.60;;
41221;SDS011;26952;42.884;23.918;2023-02-28T01:53:04;28.65;;;22.38;;
41221;SDS011;26952;42.884;23.918;2023-02-28T01:58:00;23.20;;;18.02;;
41221;SDS011;26952;42.884;23.918;2023-02-28T02:00:27;21.95;;;18.35;;
41221;SDS011;26952;42.884;23.918;2023-02-28T02:02:58;23.27;;;20.25;;
41221;SDS011;26952;42.884;23.918;2023-02-28T02:05:27;24.83;;;19.48;;
41221;SDS011;26952;42.884;23.918;2023-02-28T02:07:56;27.13;;;22.23;;
41221;SDS011;26952;42.884;23.918;2023-02-28T02:10:33;27.10;;;22.30;;
41221;SDS011;26952;42.884;23.918;2023-02-28T02:19:08;34.40;;;24.48;;
41221;SDS011;26952;42.884;23.918;2023-02-28T02:27:23;27.13;;;20.63;;
41221;SDS011;26952;42.884;23.918;2023-02-28T02:30:17;26.45;;;20.23;;
41221;SDS011;26952;42.884;23.918;2023-02-28T02:35:52;27.50;;;20.73;;
41221;SDS011;26952;42.884;23.918;2023-02-28T02:43:29;25.92;;;20.92;;
41221;SDS011;26952;42.884;23.918;2023-02-28T02:46:04;24.45;;;20.92;;
41221;SDS011;26952;42.884;23.918;2023-02-28T02:48:34;32.05;;;23.63;;
41221;SDS011;26952;42.884;23.918;2023-02-28T02:51:04;34.92;;;24.95;;
41221;SDS011;26952;42.884;23.918;2023-02-28T02:53:38;30.13;;;23.42;;
41221;SDS011;26952;42.884;23.918;2023-02-28T02:56:10;32.63;;;24.08;;
41221;SDS011;26952;42.884;23.918;2023-02-28T02:58:38;35.42;;;24.42;;
41221;SDS011;26952;42.884;23.918;2023-02-28T03:01:07;36.77;;;24.03;;
41221;SDS011;26952;42.884;23.918;2023-02-28T03:03:39;43.78;;;25.08;;
41221;SDS011;26952;42.884;23.918;2023-02-28T03:06:05;51.00;;;25.70;;
41221;SDS011;26952;42.884;23.918;2023-02-28T03:08:34;49.45;;;24.95;;
41221;SDS011;26952;42.884;23.918;2023-02-28T03:11:02;93.15;;;24.33;;
41221;SDS011;26952;42.884;23.918;2023-02-28T03:26:56;47.85;;;25.27;;
41221;SDS011;26952;42.884;23.918;2023-02-28T03:34:48;44.17;;;26.52;;
41221;SDS011;26952;42.884;23.918;2023-02-28T03:37:22;46.45;;;26.58;;
41221;SDS011;26952;42.884;23.918;2023-02-28T03:39:53;42.92;;;26.38;;
41221;SDS011;26952;42.884;23.918;2023-02-28T03:42:24;41.75;;;25.77;;
41221;SDS011;26952;42.884;23.918;2023-02-28T03:44:57;44.40;;;27.20;;
41221;SDS011;26952;42.884;23.918;2023-02-28T03:47:30;44.00;;;26.13;;
41221;SDS011;26952;42.884;23.918;2023-02-28T03:50:05;40.22;;;24.63;;
41221;SDS011;26952;42.884;23.918;2023-02-28T03:52:35;35.92;;;23.17;;
41221;SDS011;26952;42.884;23.918;2023-02-28T03:55:08;34.33;;;23.58;;
41221;SDS011;26952;42.884;23.918;2023-02-28T04:00:12;35.30;;;23.52;;
41221;SDS011;26952;42.884;23.918;2023-02-28T04:02:43;33.80;;;24.15;;
41221;SDS011;26952;42.884;23.918;2023-02-28T04:05:09;33.13;;;23.98;;
41221;SDS011;26952;42.884;23.918;2023-02-28T04:07:35;37.47;;;26.60;;
41221;SDS011;26952;42.884;23.918;2023-02-28T04:10:00;36.08;;;25.85;;
41221;SDS011;26952;42.884;23.918;2023-02-28T04:12:26;35.75;;;26.20;;
41221;SDS011;26952;42.884;23.918;2023-02-28T04:14:51;36.42;;;26.77;;
41221;SDS011;26952;42.884;23.918;2023-02-28T04:17:17;33.30;;;24.83;;
41221;SDS011;26952;42.884;23.918;2023-02-28T04:19:43;36.22;;;25.40;;
41221;SDS011;26952;42.884;23.918;2023-02-28T04:22:09;41.35;;;26.60;;
41221;SDS011;26952;42.884;23.918;2023-02-28T04:24:35;35.25;;;25.73;;
41221;SDS011;26952;42.884;23.918;2023-02-28T04:27:01;32.50;;;24.13;;
41221;SDS011;26952;42.884;23.918;2023-02-28T04:29:27;41.47;;;24.58;;
41221;SDS011;26952;42.884;23.918;2023-02-28T04:31:54;31.17;;;22.80;;
41221;SDS011;26952;42.884;23.918;2023-02-28T04:34:24;32.88;;;23.55;;
41221;SDS011;26952;42.884;23.918;2023-02-28T04:36:50;31.20;;;23.33;;
41221;SDS011;26952;42.884;23.918;2023-02-28T04:39:19;34.60;;;24.77;;
41221;SDS011;26952;42.884;23.918;2023-02-28T04:41:45;31.73;;;23.50;;
41221;SDS011;26952;42.884;23.918;2023-02-28T04:44:11;35.45;;;25.83;;
41221;SDS011;26952;42.884;23.918;2023-02-28T04:46:37;32.25;;;23.10;;
41221;SDS011;26952;42.884;23.918;2023-02-28T04:49:02;35.88;;;23.63;;
41221;SDS011;26952;42.884;23.918;2023-02-28T04:51:28;37.28;;;25.42;;
41221;SDS011;26952;42.884;23.918;2023-02-28T04:53:53;35.88;;;23.70;;
41221;SDS011;26952;42.884;23.918;2023-02-28T04:56:19;35.03;;;25.48;;
41221;SDS011;26952;42.884;23.918;2023-02-28T04:58:46;40.13;;;26.85;;
41221;SDS011;26952;42.884;23.918;2023-02-28T05:03:40;44.88;;;27.73;;
41221;SDS011;26952;42.884;23.918;2023-02-28T05:06:06;37.95;;;25.38;;
41221;SDS011;26952;42.884;23.918;2023-02-28T05:08:32;31.13;;;22.83;;
41221;SDS011;26952;42.884;23.918;2023-02-28T05:10:58;29.88;;;20.92;;
41221;SDS011;26952;42.884;23.918;2023-02-28T05:13:26;30.33;;;22.10;;
41221;SDS011;26952;42.884;23.918;2023-02-28T05:15:51;32.78;;;22.95;;
41221;SDS011;26952;42.884;23.918;2023-02-28T05:18:17;30.40;;;22.25;;
41221;SDS011;26952;42.884;23.918;2023-02-28T05:20:42;33.50;;;22.73;;
41221;SDS011;26952;42.884;23.918;2023-02-28T05:23:08;35.65;;;22.13;;
41221;SDS011;26952;42.884;23.918;2023-02-28T05:25:36;35.95;;;23.88;;
41221;SDS011;26952;42.884;23.918;2023-02-28T05:28:01;38.80;;;24.20;;
41221;SDS011;26952;42.884;23.918;2023-02-28T05:30:27;32.88;;;23.30;;
41221;SDS011;26952;42.884;23.918;2023-02-28T05:32:52;35.05;;;24.60;;
41221;SDS011;26952;42.884;23.918;2023-02-28T05:35:18;36.45;;;24.17;;
41221;SDS011;26952;42.884;23.918;2023-02-28T05:37:43;36.33;;;23.67;;
41221;SDS011;26952;42.884;23.918;2023-02-28T05:40:09;34.33;;;22.52;;
41221;SDS011;26952;42.884;23.918;2023-02-28T05:42:35;36.38;;;22.00;;
41221;SDS011;26952;42.884;23.918;2023-02-28T05:45:01;31.95;;;23.23;;
41221;SDS011;26952;42.884;23.918;2023-02-28T05:47:26;30.00;;;22.92;;
41221;SDS011;26952;42.884;23.918;2023-02-28T05:49:52;29.27;;;21.90;;
41221;SDS011;26952;42.884;23.918;2023-02-28T05:52:17;33.05;;;22.85;;
41221;SDS011;26952;42.884;23.918;2023-02-28T05:54:42;30.35;;;21.33;;
41221;SDS011;26952;42.884;23.918;2023-02-28T05:57:08;26.77;;;20.30;;
41221;SDS011;26952;42.884;23.918;2023-02-28T05:59:33;29.45;;;22.05;;
41221;SDS011;26952;42.884;23.918;2023-02-28T06:01:59;30.58;;;22.52;;
41221;SDS011;26952;42.884;23.918;2023-02-28T06:04:24;31.00;;;22.17;;
41221;SDS011;26952;42.884;23.918;2023-02-28T06:06:50;35.17;;;23.00;;
41221;SDS011;26952;42.884;23.918;2023-02-28T06:09:16;30.65;;;22.05;;
41221;SDS011;26952;42.884;23.918;2023-02-28T06:11:42;39.13;;;22.98;;
41221;SDS011;26952;42.884;23.918;2023-02-28T06:14:13;142.23;;;25.63;;
41221;SDS011;26952;42.884;23.918;2023-02-28T06:16:41;156.00;;;27.67;;
41221;SDS011;26952;42.884;23.918;2023-02-28T06:19:06;76.22;;;23.75;;
41221;SDS011;26952;42.884;23.918;2023-02-28T06:21:31;49.33;;;24.17;;
41221;SDS011;26952;42.884;23.918;2023-02-28T06:23:57;40.17;;;22.88;;
41221;SDS011;26952;42.884;23.918;2023-02-28T06:26:23;39.00;;;22.45;;
41221;SDS011;26952;42.884;23.918;2023-02-28T06:28:49;42.75;;;24.75;;
41221;SDS011;26952;42.884;23.918;2023-02-28T06:31:15;40.47;;;23.17;;
41221;SDS011;26952;42.884;23.918;2023-02-28T06:33:42;36.65;;;22.98;;
41221;SDS011;26952;42.884;23.918;2023-02-28T06:36:09;29.98;;;20.17;;
41221;SDS011;26952;42.884;23.918;2023-02-28T06:38:35;35.63;;;20.73;;
41221;SDS011;26952;42.884;23.918;2023-02-28T06:41:02;32.42;;;20.75;;
41221;SDS011;26952;42.884;23.918;2023-02-28T06:43:29;28.83;;;19.38;;
41221;SDS011;26952;42.884;23.918;2023-02-28T06:45:58;31.80;;;20.95;;
41221;SDS011;26952;42.884;23.918;2023-02-28T06:48:25;34.10;;;22.23;;
41221;SDS011;26952;42.884;23.918;2023-02-28T06:50:51;32.63;;;20.98;;
41221;SDS011;26952;42.884;23.918;2023-02-28T06:53:17;31.75;;;22.73;;
41221;SDS011;26952;42.884;23.918;2023-02-28T06:55:42;32.10;;;23.98;;
41221;SDS011;26952;42.884;23.918;2023-02-28T06:58:08;32.65;;;26.17;;
41221;SDS011;26952;42.884;23.918;2023-02-28T07:00:43;28.88;;;25.45;;
41221;SDS011;26952;42.884;23.918;2023-02-28T07:03:10;29.52;;;25.15;;
41221;SDS011;26952;42.884;23.918;2023-02-28T07:05:37;27.40;;;23.00;;
41221;SDS011;26952;42.884;23.918;2023-02-28T07:08:03;25.60;;;21.95;;
41221;SDS011;26952;42.884;23.918;2023-02-28T07:10:30;24.33;;;21.60;;
41221;SDS011;26952;42.884;23.918;2023-02-28T07:12:57;30.08;;;23.27;;
41221;SDS011;26952;42.884;23.918;2023-02-28T07:15:23;34.78;;;22.83;;
41221;SDS011;26952;42.884;23.918;2023-02-28T07:17:48;31.45;;;22.90;;
41221;SDS011;26952;42.884;23.918;2023-02-28T07:20:14;26.58;;;19.48;;
41221;SDS011;26952;42.884;23.918;2023-02-28T07:22:39;28.45;;;21.00;;
41221;SDS011;26952;42.884;23.918;2023-02-28T07:25:05;34.50;;;22.50;;
41221;SDS011;26952;42.884;23.918;2023-02-28T07:27:31;27.80;;;19.85;;
41221;SDS011;26952;42.884;23.918;2023-02-28T07:29:56;28.35;;;19.77;;
41221;SDS011;26952;42.884;23.918;2023-02-28T07:32:22;28.42;;;19.65;;
41221;SDS011;26952;42.884;23.918;2023-02-28T07:34:47;27.95;;;19.48;;
41221;SDS011;26952;42.884;23.918;2023-02-28T07:37:13;30.15;;;21.40;;
41221;SDS011;26952;42.884;23.918;2023-02-28T07:39:39;25.75;;;18.88;;
41221;SDS011;26952;42.884;23.918;2023-02-28T07:42:08;25.40;;;20.52;;
41221;SDS011;26952;42.884;23.918;2023-02-28T07:44:36;22.93;;;18.03;;
41221;SDS011;26952;42.884;23.918;2023-02-28T07:47:05;19.45;;;16.08;;
41221;SDS011;26952;42.884;23.918;2023-02-28T07:49:32;25.20;;;16.73;;
41221;SDS011;26952;42.884;23.918;2023-02-28T07:51:58;22.15;;;18.08;;
41221;SDS011;26952;42.884;23.918;2023-02-28T07:54:24;22.90;;;17.75;;
41221;SDS011;26952;42.884;23.918;2023-02-28T07:56:49;22.27;;;18.08;;
41221;SDS011;26952;42.884;23.918;2023-02-28T07:59:14;21.75;;;18.52;;
41221;SDS011;26952;42.884;23.918;2023-02-28T08:01:40;24.98;;;18.58;;
41221;SDS011;26952;42.884;23.918;2023-02-28T08:04:05;23.35;;;18.27;;
41221;SDS011;26952;42.884;23.918;2023-02-28T08:06:31;19.80;;;15.90;;
41221;SDS011;26952;42.884;23.918;2023-02-28T08:08:56;19.30;;;17.27;;
41221;SDS011;26952;42.884;23.918;2023-02-28T08:11:21;21.60;;;18.88;;
41221;SDS011;26952;42.884;23.918;2023-02-28T08:13:47;21.20;;;18.98;;
41221;SDS011;26952;42.884;23.918;2023-02-28T08:16:13;22.25;;;18.20;;
41221;SDS011;26952;42.884;23.918;2023-02-28T08:18:46;18.58;;;15.73;;
41221;SDS011;26952;42.884;23.918;2023-02-28T08:21:12;19.08;;;15.00;;
41221;SDS011;26952;42.884;23.918;2023-02-28T08:23:37;17.02;;;15.30;;
41221;SDS011;26952;42.884;23.918;2023-02-28T08:26:03;19.55;;;14.85;;
41221;SDS011;26952;42.884;23.918;2023-02-28T08:28:29;17.45;;;14.32;;
41221;SDS011;26952;42.884;23.918;2023-02-28T08:30:54;17.73;;;14.45;;
41221;SDS011;26952;42.884;23.918;2023-02-28T08:33:20;17.35;;;14.15;;
41221;SDS011;26952;42.884;23.918;2023-02-28T08:35:46;28.48;;;20.52;;
41221;SDS011;26952;42.884;23.918;2023-02-28T08:38:11;20.20;;;16.90;;
41221;SDS011;26952;42.884;23.918;2023-02-28T08:40:36;17.48;;;15.43;;
41221;SDS011;26952;42.884;23.918;2023-02-28T08:43:02;18.85;;;15.25;;
41221;SDS011;26952;42.884;23.918;2023-02-28T08:45:27;18.50;;;16.17;;
41221;SDS011;26952;42.884;23.918;2023-02-28T08:47:54;17.52;;;15.48;;
41221;SDS011;26952;42.884;23.918;2023-02-28T08:50:20;21.15;;;16.02;;
41221;SDS011;26952;42.884;23.918;2023-02-28T08:52:47;17.98;;;15.25;;
41221;SDS011;26952;42.884;23.918;2023-02-28T08:55:12;24.15;;;16.83;;
41221;SDS011;26952;42.884;23.918;2023-02-28T08:57:38;20.65;;;17.67;;
41221;SDS011;26952;42.884;23.918;2023-02-28T09:00:03;19.55;;;16.90;;
41221;SDS011;26952;42.884;23.918;2023-02-28T09:02:30;23.40;;;18.30;;
41221;SDS011;26952;42.884;23.918;2023-02-28T09:04:56;21.73;;;19.20;;
41221;SDS011;26952;42.884;23.918;2023-02-28T09:07:23;24.35;;;22.00;;
41221;SDS011;26952;42.884;23.918;2023-02-28T09:09:48;24.70;;;22.40;;
41221;SDS011;26952;42.884;23.918;2023-02-28T09:12:26;22.05;;;19.70;;
41221;SDS011;26952;42.884;23.918;2023-02-28T09:14:56;22.95;;;20.63;;
41221;SDS011;26952;42.884;23.918;2023-02-28T09:17:22;21.85;;;19.80;;
41221;SDS011;26952;42.884;23.918;2023-02-28T09:19:47;24.17;;;21.73;;
41221;SDS011;26952;42.884;23.918;2023-02-28T09:22:14;24.92;;;22.33;;
41221;SDS011;26952;42.884;23.918;2023-02-28T09:24:39;27.17;;;24.73;;
41221;SDS011;26952;42.884;23.918;2023-02-28T09:27:05;21.02;;;18.08;;
41221;SDS011;26952;42.884;23.918;2023-02-28T09:29:31;23.50;;;18.65;;
41221;SDS011;26952;42.884;23.918;2023-02-28T09:31:58;29.83;;;21.40;;
41221;SDS011;26952;42.884;23.918;2023-02-28T09:34:24;23.42;;;19.50;;
41221;SDS011;26952;42.884;23.918;2023-02-28T09:36:50;28.30;;;25.45;;
41221;SDS011;26952;42.884;23.918;2023-02-28T09:39:20;26.13;;;22.65;;
41221;SDS011;26952;42.884;23.918;2023-02-28T09:41:47;25.80;;;23.20;;
41221;SDS011;26952;42.884;23.918;2023-02-28T09:44:21;25.27;;;22.58;;
41221;SDS011;26952;42.884;23.918;2023-02-28T09:47:01;25.45;;;19.60;;
41221;SDS011;26952;42.884;23.918;2023-02-28T09:49:42;26.08;;;22.58;;
41221;SDS011;26952;42.884;23.918;2023-02-28T09:52:28;25.25;;;19.60;;
41221;SDS011;26952;42.884;23.918;2023-02-28T09:57:49;23.85;;;15.02;;
41221;SDS011;26952;42.884;23.918;2023-02-28T10:05:36;24.40;;;20.00;;
41221;SDS011;26952;42.884;23.918;2023-02-28T10:08:15;24.15;;;21.38;;
41221;SDS011;26952;42.884;23.918;2023-02-28T10:10:57;22.35;;;17.67;;
41221;SDS011;26952;42.884;23.918;2023-02-28T10:13:32;21.60;;;17.05;;
41221;SDS011;26952;42.884;23.918;2023-02-28T10:16:03;24.70;;;16.75;;
41221;SDS011;26952;42.884;23.918;2023-02-28T10:21:25;21.63;;;18.90;;
41221;SDS011;26952;42.884;23.918;2023-02-28T10:24:01;22.75;;;17.35;;
41221;SDS011;26952;42.884;23.918;2023-02-28T10:26:30;20.33;;;16.17;;
41221;SDS011;26952;42.884;23.918;2023-02-28T10:28:57;21.20;;;14.68;;
41221;SDS011;26952;42.884;23.918;2023-02-28T10:31:23;20.63;;;15.40;;
41221;SDS011;26952;42.884;23.918;2023-02-28T10:33:48;25.70;;;16.00;;
41221;SDS011;26952;42.884;23.918;2023-02-28T10:36:16;18.92;;;13.85;;
41221;SDS011;26952;42.884;23.918;2023-02-28T10:38:44;25.08;;;14.85;;
41221;SDS011;26952;42.884;23.918;2023-02-28T10:41:15;19.83;;;14.85;;
41221;SDS011;26952;42.884;23.918;2023-02-28T10:43:53;21.83;;;14.27;;
41221;SDS011;26952;42.884;23.918;2023-02-28T10:46:43;21.88;;;14.35;;
41221;SDS011;26952;42.884;23.918;2023-02-28T10:49:25;20.70;;;15.40;;
41221;SDS011;26952;42.884;23.918;2023-02-28T10:51:57;19.00;;;15.73;;
41221;SDS011;26952;42.884;23.918;2023-02-28T10:57:21;23.73;;;16.88;;
41221;SDS011;26952;42.884;23.918;2023-02-28T11:00:05;27.55;;;15.25;;
41221;SDS011;26952;42.884;23.918;2023-02-28T11:02:42;25.73;;;17.13;;
41221;SDS011;26952;42.884;23.918;2023-02-28T11:10:31;21.98;;;17.45;;
41221;SDS011;26952;42.884;23.918;2023-02-28T11:12:59;23.23;;;15.80;;
41221;SDS011;26952;42.884;23.918;2023-02-28T11:15:30;22.77;;;15.13;;
41221;SDS011;26952;42.884;23.918;2023-02-28T11:20:23;18.75;;;13.75;;
41221;SDS011;26952;42.884;23.918;2023-02-28T11:22:51;21.00;;;12.57;;
41221;SDS011;26952;42.884;23.918;2023-02-28T11:25:37;22.20;;;13.68;;
41221;SDS011;26952;42.884;23.918;2023-02-28T11:28:04;17.27;;;12.85;;
41221;SDS011;26952;42.884;23.918;2023-02-28T11:30:49;16.02;;;12.63;;
41221;SDS011;26952;42.884;23.918;2023-02-28T11:38:52;19.67;;;13.65;;
41221;SDS011;26952;42.884;23.918;2023-02-28T11:46:22;17.20;;;13.85;;
41221;SDS011;26952;42.884;23.918;2023-02-28T11:56:41;26.20;;;16.67;;
41221;SDS011;26952;42.884;23.918;2023-02-28T12:07:45;24.47;;;16.27;;
41221;SDS011;26952;42.884;23.918;2023-02-28T12:10:24;19.52;;;14.68;;
41221;SDS011;26952;42.884;23.918;2023-02-28T12:23:42;19.98;;;16.10;;
41221;SDS011;26952;42.884;23.918;2023-02-28T12:31:49;18.90;;;15.50;;
41221;SDS011;26952;42.884;23.918;2023-02-28T12:34:19;17.95;;;14.93;;
41221;SDS011;26952;42.884;23.918;2023-02-28T12:37:04;17.65;;;14.02;;
41221;SDS011;26952;42.884;23.918;2023-02-28T12:39:40;20.73;;;15.85;;
41221;SDS011;26952;42.884;23.918;2023-02-28T12:42:15;17.77;;;14.73;;
41221;SDS011;26952;42.884;23.918;2023-02-28T12:44:49;18.95;;;13.48;;
41221;SDS011;26952;42.884;23.918;2023-02-28T12:47:23;20.17;;;15.13;;
41221;SDS011;26952;42.884;23.918;2023-02-28T12:49:50;17.90;;;14.40;;
41221;SDS011;26952;42.884;23.918;2023-02-28T13:06:02;13.10;;;11.45;;
41221;SDS011;26952;42.884;23.918;2023-02-28T13:11:06;13.65;;;11.88;;
41221;SDS011;26952;42.884;23.918;2023-02-28T13:13:32;13.18;;;11.88;;
41221;SDS011;26952;42.884;23.918;2023-02-28T13:15:59;13.73;;;12.32;;
41221;SDS011;26952;42.884;23.918;2023-02-28T13:18:28;13.80;;;12.43;;
41221;SDS011;26952;42.884;23.918;2023-02-28T13:20:57;14.13;;;12.83;;
41221;SDS011;26952;42.884;23.918;2023-02-28T13:23:39;12.45;;;11.27;;
41221;SDS011;26952;42.884;23.918;2023-02-28T13:26:08;13.52;;;12.07;;
41221;SDS011;26952;42.884;23.918;2023-02-28T13:31:20;11.90;;;10.80;;
41221;SDS011;26952;42.884;23.918;2023-02-28T13:46:31;13.80;;;12.60;;
41221;SDS011;26952;42.884;23.918;2023-02-28T13:49:43;12.23;;;11.13;;
41221;SDS011;26952;42.884;23.918;2023-02-28T14:05:43;11.07;;;10.07;;
41221;SDS011;26952;42.884;23.918;2023-02-28T14:08:16;11.30;;;10.30;;
41221;SDS011;26952;42.884;23.918;2023-02-28T14:11:03;10.60;;;9.70;;
41221;SDS011;26952;42.884;23.918;2023-02-28T14:16:16;9.75;;;8.85;;
41221;SDS011;26952;42.884;23.918;2023-02-28T14:19:00;11.63;;;10.52;;
41221;SDS011;26952;42.884;23.918;2023-02-28T14:29:30;57.70;;;11.75;;
41221;SDS011;26952;42.884;23.918;2023-02-28T14:37:42;180.10;;;16.05;;
41221;SDS011;26952;42.884;23.918;2023-02-28T14:40:41;13.02;;;9.13;;
41221;SDS011;26952;42.884;23.918;2023-02-28T14:43:01;65.05;;;13.20;;
41221;SDS011;26952;42.884;23.918;2023-02-28T14:45:30;28.08;;;9.20;;
41221;SDS011;26952;42.884;23.918;2023-02-28T14:47:57;9.63;;;8.73;;
41221;SDS011;26952;42.884;23.918;2023-02-28T14:50:29;9.32;;;8.43;;
41221;SDS011;26952;42.884;23.918;2023-02-28T14:52:56;9.05;;;8.25;;
41221;SDS011;26952;42.884;23.918;2023-02-28T14:55:28;56.53;;;11.00;;
41221;SDS011;26952;42.884;23.918;2023-02-28T15:00:29;8.77;;;7.97;;
41221;SDS011;26952;42.884;23.918;2023-02-28T15:02:56;8.27;;;7.57;;
41221;SDS011;26952;42.884;23.918;2023-02-28T15:05:24;8.27;;;7.45;;
41221;SDS011;26952;42.884;23.918;2023-02-28T15:08:14;9.15;;;8.18;;
41221;SDS011;26952;42.884;23.918;2023-02-28T15:10:44;11.65;;;9.07;;
41221;SDS011;26952;42.884;23.918;2023-02-28T15:13:15;12.18;;;9.40;;
41221;SDS011;26952;42.884;23.918;2023-02-28T15:15:44;10.75;;;9.00;;
41221;SDS011;26952;42.884;23.918;2023-02-28T15:20:47;11.70;;;8.27;;
41221;SDS011;26952;42.884;23.918;2023-02-28T15:23:13;13.55;;;8.68;;
41221;SDS011;26952;42.884;23.918;2023-02-28T15:25:40;9.00;;;8.10;;
41221;SDS011;26952;42.884;23.918;2023-02-28T15:28:09;8.85;;;8.05;;
41221;SDS011;26952;42.884;23.918;2023-02-28T15:30:39;8.63;;;7.90;;
41221;SDS011;26952;42.884;23.918;2023-02-28T15:33:23;7.97;;;7.28;;
41221;SDS011;26952;42.884;23.918;2023-02-28T15:38:53;6.38;;;5.78;;
41221;SDS011;26952;42.884;23.918;2023-02-28T15:41:30;9.27;;;6.97;;
41221;SDS011;26952;42.884;23.918;2023-02-28T15:44:16;9.43;;;5.85;;
41221;SDS011;26952;42.884;23.918;2023-02-28T15:46:43;33.28;;;7.68;;
41221;SDS011;26952;42.884;23.918;2023-02-28T15:49:19;120.55;;;10.63;;
41221;SDS011;26952;42.884;23.918;2023-02-28T15:51:46;348.52;;;18.95;;
41221;SDS011;26952;42.884;23.918;2023-02-28T15:54:24;12.32;;;8.05;;
41221;SDS011;26952;42.884;23.918;2023-02-28T15:56:55;9.25;;;7.35;;
41221;SDS011;26952;42.884;23.918;2023-02-28T15:59:28;37.20;;;8.00;;
41221;SDS011;26952;42.884;23.918;2023-02-28T16:07:23;27.02;;;7.65;;
41221;SDS011;26952;42.884;23.918;2023-02-28T16:09:49;61.65;;;8.05;;
41221;SDS011;26952;42.884;23.918;2023-02-28T16:12:15;9.43;;;7.63;;
41221;SDS011;26952;42.884;23.918;2023-02-28T16:14:41;16.95;;;7.93;;
41221;SDS011;26952;42.884;23.918;2023-02-28T16:17:12;8.88;;;7.82;;
41221;SDS011;26952;42.884;23.918;2023-02-28T16:19:45;81.90;;;11.77;;
41221;SDS011;26952;42.884;23.918;2023-02-28T16:22:10;13.50;;;7.15;;
41221;SDS011;26952;42.884;23.918;2023-02-28T16:24:36;12.23;;;7.45;;
41221;SDS011;26952;42.884;23.918;2023-02-28T16:27:01;263.92;;;18.33;;
41221;SDS011;26952;42.884;23.918;2023-02-28T16:29:31;53.00;;;8.55;;
41221;SDS011;26952;42.884;23.918;2023-02-28T16:31:59;26.13;;;8.07;;
41221;SDS011;26952;42.884;23.918;2023-02-28T16:34:25;103.85;;;10.20;;
41221;SDS011;26952;42.884;23.918;2023-02-28T16:36:51;125.03;;;12.43;;
41221;SDS011;26952;42.884;23.918;2023-02-28T16:39:17;20.75;;;7.03;;
41221;SDS011;26952;42.884;23.918;2023-02-28T16:41:45;32.15;;;8.18;;
41221;SDS011;26952;42.884;23.918;2023-02-28T16:44:20;8.32;;;7.00;;
41221;SDS011;26952;42.884;23.918;2023-02-28T16:46:48;42.90;;;11.65;;
41221;SDS011;26952;42.884;23.918;2023-02-28T16:49:14;10.82;;;8.85;;
41221;SDS011;26952;42.884;23.918;2023-02-28T16:51:39;30.45;;;7.72;;
41221;SDS011;26952;42.884;23.918;2023-02-28T16:54:04;11.05;;;6.63;;
41221;SDS011;26952;42.884;23.918;2023-02-28T16:56:30;15.55;;;7.45;;
41221;SDS011;26952;42.884;23.918;2023-02-28T16:58:57;20.70;;;7.00;;
41221;SDS011;26952;42.884;23.918;2023-02-28T17:01:26;11.05;;;7.18;;
41221;SDS011;26952;42.884;23.918;2023-02-28T17:03:52;15.10;;;7.22;;
41221;SDS011;26952;42.884;23.918;2023-02-28T17:06:26;55.10;;;8.45;;
41221;SDS011;26952;42.884;23.918;2023-02-28T17:08:53;17.33;;;7.55;;
41221;SDS011;26952;42.884;23.918;2023-02-28T17:11:20;8.75;;;6.75;;
41221;SDS011;26952;42.884;23.918;2023-02-28T17:13:46;51.45;;;8.20;;
41221;SDS011;26952;42.884;23.918;2023-02-28T17:16:15;40.70;;;7.78;;
41221;SDS011;26952;42.884;23.918;2023-02-28T17:18:47;11.73;;;6.82;;
41221;SDS011;26952;42.884;23.918;2023-02-28T17:21:13;150.57;;;12.30;;
41221;SDS011;26952;42.884;23.918;2023-02-28T17:23:40;153.00;;;10.50;;
41221;SDS011;26952;42.884;23.918;2023-02-28T17:26:05;11.15;;;6.07;;